East Tawas, MI (48730)

6:33 AM EDT on September 28, 2016 (GMT -0400)
Tawas Bay Weather | | Change Station

Elev 590 ft 44.28 °N, 83.48 °W | Updated 16 seconds ago

Scattered Clouds
Scattered Clouds
52.1 °F
Feels Like 52.1 °F
N
0.0
Wind Variable Wind from West
Gusts 0.0 mph

Today
High -- | Low -- °F
--% Chance of Precip.
Yesterday
High -- | Low -- °F
Precip. -- in
Pressure 29.88 in
Visibility 10.0 miles
Clouds Scattered Clouds 8000 ft
Scattered Clouds 10000 ft
Scattered Clouds 12000 ft
Dew Point 50 °F
Humidity 93%
Rainfall 0.00 in
Snow Depth Not available.
7:28 AM 7:19 PM
Waning Crescent, 6% visible
METAR KOSC 281013Z AUTO 33003KT 10SM SCT080 SCT100 SCT120 10/10 A2988 RMK AO2 T01040097
Pressure 29.88 in
Visibility 10.0 miles
Clouds Scattered Clouds 8000 ft
Scattered Clouds 10000 ft
Scattered Clouds 12000 ft
Dew Point 50 °F
Humidity 93%
Rainfall 0.00 in
Snow Depth Not available.
7:28 AM 7:19 PM
Waning Crescent, 6% visible
METAR KOSC 281013Z AUTO 33003KT 10SM SCT080 SCT100 SCT120 10/10 A2988 RMK AO2 T01040097

10-Day Weather Forecast

Almanac

Astronomy

Sep. 28, 2016 Rise Set
Actual Time
Civil Twilight
Nautical Twilight
Astronomical Twilight
Moon
Length of Visible Light
Length of Day
Tomorrow will be .
, % of the Moon is Illuminated

Today's Extremes

State Highs State Lows

Community

WunderPhotos

Upload Photos

1,942,232 photos uploaded!

WunderBlog® & News

Nearby

Air Quality

  Air Quality AQ Index Pollutant
Not available.

Snow Depth

Station Depth Elevation

Earthquake Activity

City Distance Mag. Time & Date
Minimum magnitude displayed is 2.5.

Coastal Water Temperatures

Place Temperature

Stations

Nearby Weather Stations

Station Location Temp. Windchill Dew Point Humidity Wind Precip. Elev Updated Type
                   

Watches & Warnings

There are currently no watches in effect.